sensor_id;sensor_type;location;lat;lon;timestamp;pressure;altitude;pressure_sealevel;temperature;humidity
57102;BME280;42982;54.558;18.508;2023-08-12T00:01:09;101480.19;;;18.34;69.93
57102;BME280;42982;54.558;18.508;2023-08-12T00:02:11;101478.28;;;18.35;69.97
57102;BME280;42982;54.558;18.508;2023-08-12T00:03:14;101477.47;;;18.34;70.00
57102;BME280;42982;54.558;18.508;2023-08-12T00:04:15;101476.69;;;18.34;69.93
57102;BME280;42982;54.558;18.508;2023-08-12T00:05:17;101480.53;;;18.33;69.92
57102;BME280;42982;54.558;18.508;2023-08-12T00:06:19;101482.13;;;18.34;69.97
57102;BME280;42982;54.558;18.508;2023-08-12T00:07:20;101479.41;;;18.34;70.00
57102;BME280;42982;54.558;18.508;2023-08-12T00:08:25;101482.13;;;18.34;69.82
57102;BME280;42982;54.558;18.508;2023-08-12T00:09:27;101473.97;;;18.34;69.97
57102;BME280;42982;54.558;18.508;2023-08-12T00:10:28;101470.25;;;18.29;70.07
57102;BME280;42982;54.558;18.508;2023-08-12T00:11:34;101473.78;;;18.30;70.37
57102;BME280;42982;54.558;18.508;2023-08-12T00:12:36;101476.50;;;18.30;70.42
57102;BME280;42982;54.558;18.508;2023-08-12T00:13:40;101481.13;;;18.29;70.32
57102;BME280;42982;54.558;18.508;2023-08-12T00:14:44;101479.53;;;18.28;70.45
57102;BME280;42982;54.558;18.508;2023-08-12T00:15:49;101467.81;;;18.28;70.55
57102;BME280;42982;54.558;18.508;2023-08-12T00:16:53;101468.16;;;18.26;70.68
57102;BME280;42982;54.558;18.508;2023-08-12T00:17:58;101473.47;;;18.32;70.75
57102;BME280;42982;54.558;18.508;2023-08-12T00:18:59;101467.81;;;18.28;70.67
57102;BME280;42982;54.558;18.508;2023-08-12T00:20:01;101470.53;;;18.28;70.98
57102;BME280;42982;54.558;18.508;2023-08-12T00:21:09;101473.59;;;18.26;71.21
57102;BME280;42982;54.558;18.508;2023-08-12T00:22:11;101473.59;;;18.26;71.15
57102;BME280;42982;54.558;18.508;2023-08-12T00:23:14;101470.34;;;18.24;71.22
57102;BME280;42982;54.558;18.508;2023-08-12T00:24:18;101469.88;;;18.22;71.23
57102;BME280;42982;54.558;18.508;2023-08-12T00:25:22;101474.72;;;18.25;71.39
57102;BME280;42982;54.558;18.508;2023-08-12T00:26:24;101470.88;;;18.26;71.14
57102;BME280;42982;54.558;18.508;2023-08-12T00:27:28;101463.31;;;18.23;71.17
57102;BME280;42982;54.558;18.508;2023-08-12T00:28:33;101469.88;;;18.22;70.98
57102;BME280;42982;54.558;18.508;2023-08-12T00:29:40;101472.09;;;18.20;71.04
57102;BME280;42982;54.558;18.508;2023-08-12T00:30:47;101472.09;;;18.20;71.19
57102;BME280;42982;54.558;18.508;2023-08-12T00:31:48;101474.31;;;18.18;71.02
57102;BME280;42982;54.558;18.508;2023-08-12T00:32:50;101476.56;;;18.16;71.13
57102;BME280;42982;54.558;18.508;2023-08-12T00:33:51;101476.03;;;18.14;70.99
57102;BME280;42982;54.558;18.508;2023-08-12T00:34:54;101478.25;;;18.12;71.11
57102;BME280;42982;54.558;18.508;2023-08-12T00:35:56;101481.59;;;18.09;71.27
57102;BME280;42982;54.558;18.508;2023-08-12T00:37:00;101471.31;;;18.06;71.22
57102;BME280;42982;54.558;18.508;2023-08-12T00:38:01;101474.34;;;18.04;71.34
57102;BME280;42982;54.558;18.508;2023-08-12T00:39:03;101476.28;;;18.04;71.40
57102;BME280;42982;54.558;18.508;2023-08-12T00:40:09;101468.13;;;18.04;71.51
57102;BME280;42982;54.558;18.508;2023-08-12T00:41:15;101467.94;;;18.00;71.38
57102;BME280;42982;54.558;18.508;2023-08-12T00:42:17;101476.91;;;18.01;71.53
57102;BME280;42982;54.558;18.508;2023-08-12T00:43:20;101472.53;;;18.00;71.55
57102;BME280;42982;54.558;18.508;2023-08-12T00:44:22;101477.97;;;18.00;71.35
57102;BME280;42982;54.558;18.508;2023-08-12T00:45:25;101472.88;;;17.98;71.12
57102;BME280;42982;54.558;18.508;2023-08-12T00:46:27;101477.78;;;17.96;70.87
57102;BME280;42982;54.558;18.508;2023-08-12T00:47:29;101482.44;;;17.96;70.87
57102;BME280;42982;54.558;18.508;2023-08-12T00:48:31;101487.06;;;17.95;70.59
57102;BME280;42982;54.558;18.508;2023-08-12T00:49:33;101487.41;;;17.94;70.19
57102;BME280;42982;54.558;18.508;2023-08-12T00:50:41;101483.38;;;17.91;70.14
57102;BME280;42982;54.558;18.508;2023-08-12T00:51:49;101483.03;;;17.93;70.20
57102;BME280;42982;54.558;18.508;2023-08-12T00:52:51;101483.03;;;17.93;70.08
57102;BME280;42982;54.558;18.508;2023-08-12T00:53:57;101483.38;;;17.91;70.10
57102;BME280;42982;54.558;18.508;2023-08-12T05:10:36;101433.28;;;19.79;57.81
57102;BME280;42982;54.558;18.508;2023-08-12T05:11:41;101428.00;;;19.83;57.61
57102;BME280;42982;54.558;18.508;2023-08-12T05:12:46;101429.78;;;19.87;57.80
57102;BME280;42982;54.558;18.508;2023-08-12T05:13:51;101431.22;;;19.94;57.41
57102;BME280;42982;54.558;18.508;2023-08-12T05:14:53;101425.28;;;20.00;57.52
57102;BME280;42982;54.558;18.508;2023-08-12T05:15:55;101429.78;;;20.05;57.58
57102;BME280;42982;54.558;18.508;2023-08-12T05:16:59;101434.13;;;20.14;57.56
57102;BME280;42982;54.558;18.508;2023-08-12T05:18:06;101437.19;;;20.30;57.56
57102;BME280;42982;54.558;18.508;2023-08-12T05:19:08;101435.22;;;20.48;57.99
57102;BME280;42982;54.558;18.508;2023-08-12T05:20:16;101428.78;;;20.62;57.76
57102;BME280;42982;54.558;18.508;2023-08-12T05:21:17;101430.19;;;20.76;57.88
57102;BME280;42982;54.558;18.508;2023-08-12T05:22:24;101430.00;;;20.90;57.12
57102;BME280;42982;54.558;18.508;2023-08-12T05:23:31;101431.56;;;21.00;56.70
57102;BME280;42982;54.558;18.508;2023-08-12T05:24:38;101431.34;;;21.14;56.68
57102;BME280;42982;54.558;18.508;2023-08-12T05:25:39;101423.25;;;21.26;56.01
57102;BME280;42982;54.558;18.508;2023-08-12T05:26:43;101428.03;;;21.38;54.50
57102;BME280;42982;54.558;18.508;2023-08-12T05:27:50;101422.38;;;21.43;52.16
57102;BME280;42982;54.558;18.508;2023-08-12T05:28:52;101419.19;;;21.32;52.49
57102;BME280;42982;54.558;18.508;2023-08-12T05:29:53;101423.03;;;21.31;53.20
57102;BME280;42982;54.558;18.508;2023-08-12T05:30:55;101418.84;;;21.42;53.35
57102;BME280;42982;54.558;18.508;2023-08-12T05:31:57;101422.84;;;21.45;52.09
57102;BME280;42982;54.558;18.508;2023-08-12T05:33:01;101424.13;;;21.47;52.25
57102;BME280;42982;54.558;18.508;2023-08-12T05:34:04;101419.72;;;21.55;52.21
57102;BME280;42982;54.558;18.508;2023-08-12T05:35:06;101418.53;;;21.65;51.83
57102;BME280;42982;54.558;18.508;2023-08-12T05:36:11;101418.00;;;21.71;51.76
57102;BME280;42982;54.558;18.508;2023-08-12T05:37:15;101419.75;;;21.76;51.04
57102;BME280;42982;54.558;18.508;2023-08-12T05:38:19;101422.44;;;21.85;51.46
57102;BME280;42982;54.558;18.508;2023-08-12T05:39:23;101422.00;;;21.95;51.19
57102;BME280;42982;54.558;18.508;2023-08-12T05:40:26;101418.13;;;21.96;51.47
57102;BME280;42982;54.558;18.508;2023-08-12T05:41:28;101419.72;;;21.97;51.37
57102;BME280;42982;54.558;18.508;2023-08-12T05:42:29;101423.72;;;21.99;50.90
57102;BME280;42982;54.558;18.508;2023-08-12T05:43:31;101416.19;;;21.96;50.33
57102;BME280;42982;54.558;18.508;2023-08-12T05:44:33;101420.75;;;21.92;50.72
57102;BME280;42982;54.558;18.508;2023-08-12T05:45:35;101424.00;;;21.86;50.82
57102;BME280;42982;54.558;18.508;2023-08-12T05:46:37;101416.06;;;21.72;51.18
57102;BME280;42982;54.558;18.508;2023-08-12T05:47:41;101418.78;;;21.72;51.69
57102;BME280;42982;54.558;18.508;2023-08-12T05:48:46;101417.84;;;21.68;51.44
57102;BME280;42982;54.558;18.508;2023-08-12T05:49:48;101411.94;;;21.66;51.71
57102;BME280;42982;54.558;18.508;2023-08-12T05:50:55;101409.31;;;21.69;51.36
57102;BME280;42982;54.558;18.508;2023-08-12T05:51:57;101408.31;;;21.74;51.47
57102;BME280;42982;54.558;18.508;2023-08-12T05:53:04;101416.47;;;21.83;51.05
57102;BME280;42982;54.558;18.508;2023-08-12T05:54:10;101410.09;;;21.91;51.16
57102;BME280;42982;54.558;18.508;2023-08-12T05:55:16;101405.72;;;21.98;50.54
57102;BME280;42982;54.558;18.508;2023-08-12T05:56:26;101411.91;;;22.08;50.48
57102;BME280;42982;54.558;18.508;2023-08-12T05:57:33;101400.41;;;22.14;49.88
57102;BME280;42982;54.558;18.508;2023-08-12T05:58:35;101406.22;;;22.13;49.31
57102;BME280;42982;54.558;18.508;2023-08-12T05:59:39;101405.56;;;22.16;49.10
57102;BME280;42982;54.558;18.508;2023-08-12T06:00:41;101406.56;;;22.11;48.26
57102;BME280;42982;54.558;18.508;2023-08-12T06:01:46;101398.34;;;22.11;47.93
57102;BME280;42982;54.558;18.508;2023-08-12T06:02:48;101395.25;;;22.13;48.33
57102;BME280;42982;54.558;18.508;2023-08-12T06:03:51;101400.50;;;22.27;48.04
57102;BME280;42982;54.558;18.508;2023-08-12T06:04:53;101399.25;;;22.36;48.07
57102;BME280;42982;54.558;18.508;2023-08-12T06:05:55;101405.66;;;22.40;47.15
57102;BME280;42982;54.558;18.508;2023-08-12T06:07:04;101401.09;;;22.44;46.81
57102;BME280;42982;54.558;18.508;2023-08-12T06:08:08;101400.13;;;22.61;47.22
57102;BME280;42982;54.558;18.508;2023-08-12T06:09:10;101396.59;;;22.61;45.90
57102;BME280;42982;54.558;18.508;2023-08-12T06:10:12;101406.97;;;22.55;46.14
57102;BME280;42982;54.558;18.508;2023-08-12T06:11:14;101410.09;;;22.78;46.61
57102;BME280;42982;54.558;18.508;2023-08-12T06:12:16;101401.88;;;22.90;46.91
57102;BME280;42982;54.558;18.508;2023-08-12T06:13:20;101405.47;;;23.03;45.97
57102;BME280;42982;54.558;18.508;2023-08-12T06:14:22;101404.09;;;23.22;45.03
57102;BME280;42982;54.558;18.508;2023-08-12T06:15:25;101397.78;;;23.33;44.40
57102;BME280;42982;54.558;18.508;2023-08-12T06:16:26;101393.00;;;23.30;43.90
57102;BME280;42982;54.558;18.508;2023-08-12T06:17:28;101389.56;;;23.46;44.60
57102;BME280;42982;54.558;18.508;2023-08-12T06:18:33;101391.78;;;23.68;44.56
57102;BME280;42982;54.558;18.508;2023-08-12T06:19:35;101396.50;;;23.96;44.49
57102;BME280;42982;54.558;18.508;2023-08-12T06:20:37;101385.63;;;24.27;44.43
57102;BME280;42982;54.558;18.508;2023-08-12T06:21:40;101383.03;;;24.47;41.99
57102;BME280;42982;54.558;18.508;2023-08-12T06:22:42;101391.97;;;24.44;42.91
57102;BME280;42982;54.558;18.508;2023-08-12T06:23:44;101390.06;;;24.32;42.81
57102;BME280;42982;54.558;18.508;2023-08-12T06:24:49;101390.81;;;24.45;42.77
57102;BME280;42982;54.558;18.508;2023-08-12T06:25:53;101377.34;;;24.71;42.45
57102;BME280;42982;54.558;18.508;2023-08-12T06:26:57;101384.09;;;24.90;41.75
57102;BME280;42982;54.558;18.508;2023-08-12T06:27:58;101389.06;;;25.16;40.92
57102;BME280;42982;54.558;18.508;2023-08-12T06:29:00;101374.22;;;25.05;40.33
57102;BME280;42982;54.558;18.508;2023-08-12T06:30:02;101382.34;;;25.13;40.03
57102;BME280;42982;54.558;18.508;2023-08-12T06:31:03;101374.31;;;25.24;40.03
57102;BME280;42982;54.558;18.508;2023-08-12T06:32:06;101371.09;;;25.38;39.86
57102;BME280;42982;54.558;18.508;2023-08-12T06:33:10;101385.25;;;25.75;39.49
57102;BME280;42982;54.558;18.508;2023-08-12T06:34:14;101380.72;;;26.02;38.24
57102;BME280;42982;54.558;18.508;2023-08-12T06:35:15;101373.28;;;26.06;38.04
57102;BME280;42982;54.558;18.508;2023-08-12T06:36:17;101372.84;;;26.24;38.02
57102;BME280;42982;54.558;18.508;2023-08-12T06:37:19;101369.81;;;26.09;38.13
57102;BME280;42982;54.558;18.508;2023-08-12T06:38:20;101366.94;;;26.25;38.02
57102;BME280;42982;54.558;18.508;2023-08-12T06:39:25;101372.47;;;26.25;37.50
57102;BME280;42982;54.558;18.508;2023-08-12T06:40:27;101369.72;;;26.25;36.68
57102;BME280;42982;54.558;18.508;2023-08-12T06:41:32;101382.88;;;25.93;37.89
57102;BME280;42982;54.558;18.508;2023-08-12T06:42:34;101370.41;;;25.80;37.44
57102;BME280;42982;54.558;18.508;2023-08-12T06:43:36;101374.41;;;25.82;37.46
57102;BME280;42982;54.558;18.508;2023-08-12T06:44:40;101373.97;;;26.00;37.14
57102;BME280;42982;54.558;18.508;2023-08-12T06:45:41;101373.81;;;26.35;37.30
57102;BME280;42982;54.558;18.508;2023-08-12T06:46:45;101370.66;;;26.79;36.33
57102;BME280;42982;54.558;18.508;2023-08-12T06:47:47;101378.63;;;26.84;36.06
57102;BME280;42982;54.558;18.508;2023-08-12T06:48:50;101367.19;;;27.09;35.52
57102;BME280;42982;54.558;18.508;2023-08-12T06:49:52;101366.13;;;26.44;36.30
57102;BME280;42982;54.558;18.508;2023-08-12T06:50:56;101362.06;;;26.38;37.06
57102;BME280;42982;54.558;18.508;2023-08-12T06:52:00;101367.03;;;26.48;37.38
57102;BME280;42982;54.558;18.508;2023-08-12T06:53:03;101370.91;;;26.47;36.81
57102;BME280;42982;54.558;18.508;2023-08-12T06:54:07;101369.56;;;26.61;36.29
57102;BME280;42982;54.558;18.508;2023-08-12T06:55:09;101373.06;;;26.57;35.68
57102;BME280;42982;54.558;18.508;2023-08-12T06:56:12;101368.09;;;26.67;36.24
57102;BME280;42982;54.558;18.508;2023-08-12T06:57:14;101365.38;;;26.93;35.63
57102;BME280;42982;54.558;18.508;2023-08-12T06:58:15;101365.75;;;27.15;35.77
57102;BME280;42982;54.558;18.508;2023-08-12T06:59:19;101365.19;;;27.32;35.55
57102;BME280;42982;54.558;18.508;2023-08-12T07:00:20;101363.91;;;27.26;35.96
57102;BME280;42982;54.558;18.508;2023-08-12T07:01:23;101366.31;;;27.04;36.56
57102;BME280;42982;54.558;18.508;2023-08-12T07:02:25;101366.16;;;26.48;36.57
57102;BME280;42982;54.558;18.508;2023-08-12T07:03:27;101371.22;;;26.23;36.95
57102;BME280;42982;54.558;18.508;2023-08-12T07:04:34;101369.81;;;26.09;37.12
57102;BME280;42982;54.558;18.508;2023-08-12T07:05:35;101370.75;;;26.17;37.64
57102;BME280;42982;54.558;18.508;2023-08-12T07:06:37;101359.22;;;26.11;37.44
57102;BME280;42982;54.558;18.508;2023-08-12T07:07:41;101369.94;;;26.36;37.82
57102;BME280;42982;54.558;18.508;2023-08-12T07:08:43;101373.59;;;26.67;37.58
57102;BME280;42982;54.558;18.508;2023-08-12T07:09:45;101363.47;;;26.71;37.04
57102;BME280;42982;54.558;18.508;2023-08-12T07:10:47;101365.03;;;26.72;36.90
57102;BME280;42982;54.558;18.508;2023-08-12T07:11:50;101362.56;;;26.67;37.06
57102;BME280;42982;54.558;18.508;2023-08-12T07:12:51;101363.69;;;26.62;36.64
57102;BME280;42982;54.558;18.508;2023-08-12T07:13:54;101363.94;;;26.53;37.15
57102;BME280;42982;54.558;18.508;2023-08-12T07:14:56;101358.22;;;26.43;37.54
57102;BME280;42982;54.558;18.508;2023-08-12T07:15:58;101364.72;;;26.54;37.24
57102;BME280;42982;54.558;18.508;2023-08-12T07:17:04;101362.97;;;26.65;37.59
57102;BME280;42982;54.558;18.508;2023-08-12T07:18:07;101358.41;;;26.76;37.91
57102;BME280;42982;54.558;18.508;2023-08-12T07:19:10;101366.94;;;26.68;37.46
57102;BME280;42982;54.558;18.508;2023-08-12T07:20:15;101365.19;;;26.83;36.74
57102;BME280;42982;54.558;18.508;2023-08-12T07:21:19;101359.00;;;26.43;36.88
57102;BME280;42982;54.558;18.508;2023-08-12T07:22:20;101361.50;;;26.48;37.13
57102;BME280;42982;54.558;18.508;2023-08-12T07:23:22;101356.94;;;26.60;36.80
57102;BME280;42982;54.558;18.508;2023-08-12T07:24:24;101354.00;;;26.72;36.92
57102;BME280;42982;54.558;18.508;2023-08-12T07:25:26;101356.03;;;26.75;36.87
57102;BME280;42982;54.558;18.508;2023-08-12T07:26:27;101355.88;;;26.91;36.95
57102;BME280;42982;54.558;18.508;2023-08-12T07:27:29;101355.94;;;26.94;36.97
57102;BME280;42982;54.558;18.508;2023-08-12T07:28:31;101362.19;;;26.91;36.69
57102;BME280;42982;54.558;18.508;2023-08-12T07:29:33;101360.09;;;27.11;36.86
57102;BME280;42982;54.558;18.508;2023-08-12T07:30:38;101362.69;;;27.23;36.39
57102;BME280;42982;54.558;18.508;2023-08-12T07:31:42;101361.44;;;27.47;36.11
57102;BME280;42982;54.558;18.508;2023-08-12T07:32:45;101358.53;;;27.67;35.85
57102;BME280;42982;54.558;18.508;2023-08-12T07:33:46;101354.81;;;28.19;35.12
57102;BME280;42982;54.558;18.508;2023-08-12T07:34:48;101355.25;;;28.66;34.33
57102;BME280;42982;54.558;18.508;2023-08-12T07:35:50;101353.38;;;28.81;35.11
57102;BME280;42982;54.558;18.508;2023-08-12T07:36:52;101355.09;;;29.00;35.30
57102;BME280;42982;54.558;18.508;2023-08-12T07:37:55;101360.59;;;28.93;34.57
57102;BME280;42982;54.558;18.508;2023-08-12T07:38:57;101359.09;;;29.02;33.96
57102;BME280;42982;54.558;18.508;2023-08-12T07:39:59;101360.75;;;29.10;34.27
57102;BME280;42982;54.558;18.508;2023-08-12T07:41:04;101356.41;;;28.65;34.58
57102;BME280;42982;54.558;18.508;2023-08-12T07:42:06;101364.72;;;28.24;35.27
57102;BME280;42982;54.558;18.508;2023-08-12T07:43:13;101357.06;;;27.77;35.85
57102;BME280;42982;54.558;18.508;2023-08-12T07:44:17;101362.94;;;27.41;37.02
57102;BME280;42982;54.558;18.508;2023-08-12T07:45:19;101363.06;;;27.22;37.64
57102;BME280;42982;54.558;18.508;2023-08-12T07:46:23;101355.56;;;26.96;37.33
57102;BME280;42982;54.558;18.508;2023-08-12T07:47:27;101358.97;;;26.40;37.57
57102;BME280;42982;54.558;18.508;2023-08-12T07:48:29;101358.50;;;26.38;38.13
57102;BME280;42982;54.558;18.508;2023-08-12T07:49:37;101360.34;;;26.49;37.79
57102;BME280;42982;54.558;18.508;2023-08-12T07:50:38;101363.94;;;26.53;38.30
57102;BME280;42982;54.558;18.508;2023-08-12T07:51:41;101362.28;;;26.72;38.27
57102;BME280;42982;54.558;18.508;2023-08-12T07:52:42;101353.38;;;26.82;38.07
57102;BME280;42982;54.558;18.508;2023-08-12T07:53:43;101360.28;;;26.95;38.49
57102;BME280;42982;54.558;18.508;2023-08-12T07:54:45;101356.91;;;27.06;38.20
57102;BME280;42982;54.558;18.508;2023-08-12T07:55:49;101355.78;;;27.37;38.49
57102;BME280;42982;54.558;18.508;2023-08-12T07:56:51;101357.56;;;27.82;37.48
57102;BME280;42982;54.558;18.508;2023-08-12T07:57:54;101357.88;;;28.11;36.84
57102;BME280;42982;54.558;18.508;2023-08-12T07:58:57;101360.69;;;28.18;36.08
57102;BME280;42982;54.558;18.508;2023-08-12T07:59:58;101356.13;;;27.95;37.13
57102;BME280;42982;54.558;18.508;2023-08-12T08:01:00;101358.19;;;28.06;37.58
57102;BME280;42982;54.558;18.508;2023-08-12T08:02:02;101355.94;;;28.15;36.87
57102;BME280;42982;54.558;18.508;2023-08-12T08:03:05;101354.50;;;28.28;36.87
57102;BME280;42982;54.558;18.508;2023-08-12T08:04:06;101345.03;;;28.29;36.44
57102;BME280;42982;54.558;18.508;2023-08-12T08:05:08;101359.19;;;28.24;36.49
57102;BME280;42982;54.558;18.508;2023-08-12T08:06:10;101365.84;;;28.16;36.21
57102;BME280;42982;54.558;18.508;2023-08-12T08:07:16;101353.47;;;28.03;36.53
57102;BME280;42982;54.558;18.508;2023-08-12T08:08:21;101356.44;;;28.28;36.68
57102;BME280;42982;54.558;18.508;2023-08-12T08:09:23;101349.94;;;28.47;36.14
57102;BME280;42982;54.558;18.508;2023-08-12T08:10:26;101362.44;;;28.78;35.51
57102;BME280;42982;54.558;18.508;2023-08-12T08:11:29;101348.97;;;28.73;35.15
57102;BME280;42982;54.558;18.508;2023-08-12T08:12:33;101357.94;;;28.59;34.75
57102;BME280;42982;54.558;18.508;2023-08-12T08:13:35;101356.41;;;28.24;34.94
57102;BME280;42982;54.558;18.508;2023-08-12T08:14:39;101355.03;;;28.04;34.94
57102;BME280;42982;54.558;18.508;2023-08-12T08:15:42;101347.94;;;28.03;35.28
57102;BME280;42982;54.558;18.508;2023-08-12T08:16:46;101355.31;;;28.32;35.21
57102;BME280;42982;54.558;18.508;2023-08-12T08:17:51;101348.84;;;28.17;35.56
57102;BME280;42982;54.558;18.508;2023-08-12T08:18:56;101353.78;;;27.98;35.18
57102;BME280;42982;54.558;18.508;2023-08-12T08:19:57;101350.63;;;27.65;35.78
57102;BME280;42982;54.558;18.508;2023-08-12T08:21:02;101346.81;;;27.43;36.09
57102;BME280;42982;54.558;18.508;2023-08-12T08:22:04;101344.19;;;27.24;36.58
57102;BME280;42982;54.558;18.508;2023-08-12T08:23:06;101344.75;;;26.84;36.68
57102;BME280;42982;54.558;18.508;2023-08-12T08:24:08;101345.00;;;26.75;36.90
57102;BME280;42982;54.558;18.508;2023-08-12T08:25:14;101349.75;;;26.51;37.09
57102;BME280;42982;54.558;18.508;2023-08-12T08:26:16;101346.31;;;26.39;37.81
57102;BME280;42982;54.558;18.508;2023-08-12T08:27:22;101350.84;;;26.27;38.18
57102;BME280;42982;54.558;18.508;2023-08-12T08:28:24;101344.41;;;26.20;38.26
57102;BME280;42982;54.558;18.508;2023-08-12T08:29:26;101350.06;;;26.27;38.64
57102;BME280;42982;54.558;18.508;2023-08-12T08:30:28;101345.22;;;26.43;38.30
57102;BME280;42982;54.558;18.508;2023-08-12T08:31:30;101345.06;;;26.32;38.04
57102;BME280;42982;54.558;18.508;2023-08-12T08:32:35;101344.78;;;26.41;38.19
57102;BME280;42982;54.558;18.508;2023-08-12T08:33:37;101343.72;;;26.69;38.18
57102;BME280;42982;54.558;18.508;2023-08-12T08:34:38;101344.44;;;26.66;36.90
57102;BME280;42982;54.558;18.508;2023-08-12T08:35:41;101349.78;;;26.78;37.36
57102;BME280;42982;54.558;18.508;2023-08-12T08:36:43;101349.38;;;26.79;36.98
57102;BME280;42982;54.558;18.508;2023-08-12T08:37:45;101344.88;;;26.94;36.98
57102;BME280;42982;54.558;18.508;2023-08-12T08:38:47;101354.44;;;27.00;36.85
57102;BME280;42982;54.558;18.508;2023-08-12T08:39:51;101334.63;;;26.95;36.86
57102;BME280;42982;54.558;18.508;2023-08-12T08:40:56;101336.06;;;26.85;37.43
57102;BME280;42982;54.558;18.508;2023-08-12T08:42:06;101344.00;;;26.87;37.53
57102;BME280;42982;54.558;18.508;2023-08-12T08:43:08;101336.41;;;26.57;38.47
57102;BME280;42982;54.558;18.508;2023-08-12T08:44:14;101345.84;;;26.33;37.79
57102;BME280;42982;54.558;18.508;2023-08-12T08:45:18;101334.31;;;25.85;38.62
57102;BME280;42982;54.558;18.508;2023-08-12T08:46:23;101344.75;;;25.76;39.01
57102;BME280;42982;54.558;18.508;2023-08-12T08:47:26;101341.81;;;25.69;38.97
57102;BME280;42982;54.558;18.508;2023-08-12T08:48:28;101339.75;;;25.81;39.15
57102;BME280;42982;54.558;18.508;2023-08-12T08:49:30;101339.66;;;25.78;39.25
57102;BME280;42982;54.558;18.508;2023-08-12T08:50:33;101345.88;;;25.75;39.58
57102;BME280;42982;54.558;18.508;2023-08-12T08:51:37;101334.47;;;25.92;39.35
57102;BME280;42982;54.558;18.508;2023-08-12T08:52:42;101334.66;;;26.26;38.65
57102;BME280;42982;54.558;18.508;2023-08-12T08:53:44;101342.19;;;26.48;38.56
57102;BME280;42982;54.558;18.508;2023-08-12T08:54:47;101332.44;;;26.54;38.04
57102;BME280;42982;54.558;18.508;2023-08-12T08:55:49;101332.22;;;26.44;37.64
57102;BME280;42982;54.558;18.508;2023-08-12T08:56:51;101339.81;;;26.04;38.63
57102;BME280;42982;54.558;18.508;2023-08-12T08:57:56;101333.78;;;25.99;38.54
57102;BME280;42982;54.558;18.508;2023-08-12T08:58:57;101324.81;;;26.25;38.55
57102;BME280;42982;54.558;18.508;2023-08-12T08:59:59;101333.09;;;26.25;39.02
57102;BME280;42982;54.558;18.508;2023-08-12T09:01:01;101329.41;;;26.40;37.82
57102;BME280;42982;54.558;18.508;2023-08-12T09:02:03;101327.94;;;26.69;38.04
57102;BME280;42982;54.558;18.508;2023-08-12T09:03:06;101331.84;;;26.91;37.03
57102;BME280;42982;54.558;18.508;2023-08-12T09:04:12;101337.66;;;27.13;36.79
57102;BME280;42982;54.558;18.508;2023-08-12T09:05:17;101339.34;;;27.47;37.13
57102;BME280;42982;54.558;18.508;2023-08-12T09:06:20;101319.47;;;27.35;36.62
57102;BME280;42982;54.558;18.508;2023-08-12T09:07:23;101319.66;;;27.19;36.55
57102;BME280;42982;54.558;18.508;2023-08-12T09:08:26;101318.81;;;26.92;36.95
57102;BME280;42982;54.558;18.508;2023-08-12T09:09:31;101316.03;;;26.88;37.57
57102;BME280;42982;54.558;18.508;2023-08-12T09:10:45;101324.88;;;27.01;37.56
57102;BME280;42982;54.558;18.508;2023-08-12T09:11:50;101318.38;;;26.63;37.87
57102;BME280;42982;54.558;18.508;2023-08-12T09:12:55;101332.06;;;26.33;38.24
57102;BME280;42982;54.558;18.508;2023-08-12T09:13:57;101323.97;;;26.21;39.00
57102;BME280;42982;54.558;18.508;2023-08-12T09:15:01;101309.19;;;26.09;39.26
57102;BME280;42982;54.558;18.508;2023-08-12T09:16:09;101328.13;;;26.11;40.07
57102;BME280;42982;54.558;18.508;2023-08-12T09:17:12;101321.56;;;26.19;38.98
57102;BME280;42982;54.558;18.508;2023-08-12T09:18:17;101322.44;;;26.23;39.54
57102;BME280;42982;54.558;18.508;2023-08-12T09:19:23;101320.28;;;26.36;38.86
57102;BME280;42982;54.558;18.508;2023-08-12T09:20:25;101319.63;;;26.43;39.31
57102;BME280;42982;54.558;18.508;2023-08-12T09:21:27;101327.34;;;26.56;39.65
57102;BME280;42982;54.558;18.508;2023-08-12T09:22:30;101311.97;;;26.55;40.33
57102;BME280;42982;54.558;18.508;2023-08-12T09:23:38;101312.81;;;26.60;40.53
57102;BME280;42982;54.558;18.508;2023-08-12T09:24:41;101319.72;;;26.73;40.12
57102;BME280;42982;54.558;18.508;2023-08-12T09:25:45;101314.75;;;26.82;40.11
57102;BME280;42982;54.558;18.508;2023-08-12T09:26:51;101317.19;;;26.87;40.21
57102;BME280;42982;54.558;18.508;2023-08-12T09:27:54;101311.25;;;26.85;39.05
57102;BME280;42982;54.558;18.508;2023-08-12T09:29:00;101316.84;;;26.92;39.31
57102;BME280;42982;54.558;18.508;2023-08-12T09:30:08;101308.56;;;26.92;39.81
57102;BME280;42982;54.558;18.508;2023-08-12T09:31:27;101315.72;;;26.93;39.15
57102;BME280;42982;54.558;18.508;2023-08-12T09:32:32;101312.50;;;26.91;39.60
57102;BME280;42982;54.558;18.508;2023-08-12T09:33:39;101319.75;;;26.99;39.47
57102;BME280;42982;54.558;18.508;2023-08-12T09:34:54;101317.81;;;27.03;39.23
57102;BME280;42982;54.558;18.508;2023-08-12T09:35:55;101321.88;;;26.83;39.14
57102;BME280;42982;54.558;18.508;2023-08-12T09:37:02;101314.31;;;26.53;38.41
57102;BME280;42982;54.558;18.508;2023-08-12T09:38:06;101313.22;;;25.93;39.22
57102;BME280;42982;54.558;18.508;2023-08-12T09:39:09;101303.50;;;25.79;40.25
57102;BME280;42982;54.558;18.508;2023-08-12T09:40:11;101316.19;;;25.84;40.07
57102;BME280;42982;54.558;18.508;2023-08-12T09:41:13;101312.53;;;25.80;39.89
57102;BME280;42982;54.558;18.508;2023-08-12T09:42:16;101312.41;;;25.73;40.25
57102;BME280;42982;54.558;18.508;2023-08-12T09:43:18;101320.44;;;25.62;39.59